Date,TemperatureHighF,TemperatureAvgF,TemperatureLowF,DewpointHighF,DewpointAvgF,DewpointLowF,HumidityHigh,HumidityAvg,HumidityLow,PressureMaxIn,PressureMinIn,WindSpeedMaxMPH,WindSpeedAvgMPH,GustSpeedMaxMPH,PrecipitationSumIn
2013-4-1,50,44,37,43,38,28,85,78,68,29.86,29.43,16,8,30,1.19
2013-4-2,38,34,30,25,19,14,70,54,38,29.76,29.59,18,9,30,0.00
2013-4-3,37,33,30,23,18,14,73,54,38,29.78,29.74,25,13,35,0.00
2013-4-4,48,39,33,37,21,12,79,49,24,30.14,29.94,18,13,30,0.00
2013-4-5,48,44,40,37,34,27,80,68,45,29.94,29.60,21,12,29,0.00
2013-4-6,41,38,36,29,25,21,66,59,53,29.77,29.72,21,14,25,0.00
2013-4-7,46,37,25,40,29,18,84,72,58,30.30,29.95,19,9,39,0.00
2013-4-8,60,49,38,42,38,34,85,69,42,30.10,29.85,18,8,30,0.00
2013-4-9,45,43,38,40,37,31,85,80,69,30.10,29.85,7,2,17,0.23
2013-4-10,54,45,40,47,35,26,83,67,50,29.95,29.85,13,3,18,0.09
2013-4-11,51,45,41,39,30,19,83,58,30,30.13,29.81,13,4,24,0.01
2013-4-12,42,37,34,33,25,17,84,63,42,30.22,29.87,12,6,24,0.31
2013-4-13,46,38,35,38,32,26,84,76,71,29.88,29.75,15,6,24,0.14
2013-4-14,49,43,36,42,36,28,83,77,67,30.11,29.86,7,0,17,0.22
2013-4-15,46,40,32,40,34,22,83,77,66,30.39,30.11,16,5,20,0.00
2013-4-16,50,47,42,45,40,34,83,78,67,30.39,29.92,26,12,38,0.02
2013-4-17,61,53,40,48,36,26,81,54,29,30.31,29.90,23,11,35,0.03
2013-4-18,47,42,31,40,33,25,85,70,43,30.44,30.16,16,4,24,0.00
2013-4-19,61,53,47,54,40,31,82,62,41,30.16,29.64,31,13,33,0.00
2013-4-20,59,54,48,46,36,31,80,53,39,30.06,29.53,25,10,37,0.33
2013-4-21,51,43,32,31,26,19,81,52,30,30.65,30.05,19,7,27,0.00
2013-4-22,47,38,28,37,29,24,84,71,41,30.77,30.64,14,3,20,0.00
2013-4-23,44,40,32,37,34,27,83,78,69,30.65,30.16,12,3,17,0.01
2013-4-24,58,49,44,51,40,33,79,69,56,30.17,29.71,10,3,16,0.38
2013-4-25,62,54,42,45,37,31,80,55,34,30.23,29.77,22,9,33,0.06
2013-4-26,54,45,34,37,34,26,82,65,44,30.40,30.22,16,4,22,0.00
2013-4-27,54,44,33,40,34,25,81,69,52,30.38,30.27,11,3,15,0.00
2013-4-28,60,49,34,45,36,24,81,62,45,30.30,30.22,15,4,20,0.00
2013-4-29,59,48,34,47,38,26,80,69,51,30.25,30.19,12,3,19,0.00
2013-4-30,62,50,35,47,35,24,80,59,34,30.33,30.22,14,3,18,0.00